createdAt,value
2018-08-30T00:01:59.664Z,19.87
2018-08-30T00:04:27.016Z,13.73
2018-08-30T00:06:54.383Z,14.63
2018-08-30T00:09:22.507Z,15.05
2018-08-30T00:11:49.924Z,15.83
2018-08-30T00:14:17.858Z,14.03
2018-08-30T00:16:45.220Z,15.18
2018-08-30T00:19:12.808Z,16.55
2018-08-30T00:21:40.186Z,14.93
2018-08-30T00:24:08.186Z,18.48
2018-08-30T00:26:35.561Z,17.25
2018-08-30T00:29:03.375Z,14.33
2018-08-30T00:31:30.703Z,18.80
2018-08-30T00:33:58.133Z,20.05
2018-08-30T00:36:25.477Z,15.75
2018-08-30T00:38:52.860Z,16.67
2018-08-30T00:41:20.609Z,21.63
2018-08-30T00:43:48.242Z,15.95
2018-08-30T00:46:15.949Z,19.70
2018-08-30T00:48:43.520Z,19.10
2018-08-30T00:51:11.161Z,15.50
2018-08-30T00:53:38.766Z,15.27
2018-08-30T00:56:06.641Z,17.73
2018-08-30T00:58:34.325Z,14.63
2018-08-30T01:01:02.040Z,18.07
2018-08-30T01:03:29.960Z,16.70
2018-08-30T01:05:57.640Z,20.37
2018-08-30T01:08:25.310Z,16.85
2018-08-30T01:10:53.216Z,16.42
2018-08-30T01:13:20.698Z,15.60
2018-08-30T01:15:48.107Z,21.25
2018-08-30T01:18:15.446Z,18.95
2018-08-30T01:20:42.825Z,14.93
2018-08-30T01:23:10.745Z,16.37
2018-08-30T01:25:38.468Z,16.42
2018-08-30T01:28:05.848Z,16.35
2018-08-30T01:30:33.189Z,14.45
2018-08-30T01:33:02.097Z,18.40
2018-08-30T01:35:29.715Z,15.10
2018-08-30T01:37:57.639Z,16.00
2018-08-30T01:40:25.608Z,14.70
2018-08-30T01:42:53.789Z,16.82
2018-08-30T01:45:21.433Z,19.02
2018-08-30T01:47:48.746Z,21.17
2018-08-30T01:50:16.316Z,16.65
2018-08-30T01:52:44.424Z,18.67
2018-08-30T01:55:11.797Z,15.38
2018-08-30T01:57:40.465Z,14.03
2018-08-30T02:00:08.142Z,14.90
2018-08-30T02:02:35.483Z,16.50
2018-08-30T02:05:03.417Z,22.10
2018-08-30T02:07:31.104Z,18.15
2018-08-30T02:09:58.435Z,14.45
2018-08-30T02:12:26.046Z,19.73
2018-08-30T02:14:53.428Z,15.83
2018-08-30T02:17:21.310Z,18.50
2018-08-30T02:19:48.973Z,16.30
2018-08-30T02:22:16.942Z,17.25
2018-08-30T02:24:45.369Z,23.20
2018-08-30T02:27:13.029Z,15.98
2018-08-30T02:29:41.157Z,15.97
2018-08-30T02:32:08.538Z,19.07
2018-08-30T02:34:36.192Z,18.95
2018-08-30T02:37:03.866Z,16.30
2018-08-30T02:39:31.456Z,16.87
2018-08-30T02:41:59.140Z,17.98
2018-08-30T02:44:27.355Z,15.10
2018-08-30T02:46:54.956Z,17.50
2018-08-30T02:49:22.833Z,18.85
2018-08-30T02:51:50.226Z,19.23
2018-08-30T02:54:17.607Z,17.57
2018-08-30T02:56:45.289Z,21.52
2018-08-30T02:59:13.577Z,19.62
2018-08-30T03:01:41.444Z,20.30
2018-08-30T03:04:08.740Z,18.90
2018-08-30T03:06:36.090Z,17.48
2018-08-30T03:09:04.959Z,19.87
2018-08-30T03:11:32.254Z,26.15
2018-08-30T03:13:59.581Z,21.48
2018-08-30T03:16:27.278Z,19.90
2018-08-30T03:18:55.289Z,24.02
2018-08-30T03:21:22.968Z,21.12
2018-08-30T03:23:51.325Z,20.35
2018-08-30T03:26:19.597Z,19.53
2018-08-30T03:28:47.659Z,21.57
2018-08-30T03:31:15.306Z,22.82
2018-08-30T03:33:43.501Z,27.48
2018-08-30T03:36:11.594Z,16.95
2018-08-30T03:38:39.297Z,19.75
2018-08-30T03:41:06.714Z,21.23
2018-08-30T03:43:34.092Z,21.60
2018-08-30T03:46:02.396Z,23.57
2018-08-30T03:48:30.101Z,20.40
2018-08-30T03:50:57.782Z,19.17
2018-08-30T03:53:25.733Z,20.48
2018-08-30T03:55:53.134Z,18.52
2018-08-30T03:58:20.748Z,20.70
2018-08-30T04:00:48.374Z,21.25
2018-08-30T04:03:15.980Z,22.15
2018-08-30T04:05:43.945Z,24.23
2018-08-30T04:08:11.602Z,22.67
2018-08-30T04:10:39.007Z,23.67
2018-08-30T04:13:06.620Z,24.40
2018-08-30T04:15:33.969Z,22.73
2018-08-30T04:18:01.640Z,21.07
2018-08-30T04:20:28.981Z,19.15
2018-08-30T04:22:56.642Z,20.82
2018-08-30T04:25:24.022Z,24.00
2018-08-30T04:27:51.857Z,21.10
2018-08-30T04:30:19.549Z,20.00
2018-08-30T04:32:48.080Z,21.82
2018-08-30T04:35:15.709Z,22.25
2018-08-30T04:37:43.354Z,21.67
2018-08-30T04:40:11.665Z,21.55
2018-08-30T04:42:39.375Z,24.30
2018-08-30T04:45:07.514Z,23.00
2018-08-30T04:47:35.140Z,20.80
2018-08-30T04:50:02.885Z,22.40
2018-08-30T04:52:30.720Z,21.93
2018-08-30T04:54:58.145Z,23.07
2018-08-30T04:57:25.805Z,20.17
2018-08-30T04:59:53.443Z,22.40
2018-08-30T05:02:21.097Z,23.77
2018-08-30T05:04:49.281Z,22.70
2018-08-30T05:07:17.550Z,22.30
2018-08-30T05:09:45.508Z,64.60
2018-08-30T05:12:13.493Z,33.92
2018-08-30T05:14:41.771Z,28.40
2018-08-30T05:17:09.118Z,29.70
2018-08-30T05:19:37.097Z,28.20
2018-08-30T05:22:04.804Z,27.65
2018-08-30T05:24:33.289Z,25.60
2018-08-30T05:27:00.626Z,24.87
2018-08-30T05:29:28.253Z,28.98
2018-08-30T05:31:56.222Z,26.68
2018-08-30T05:34:23.847Z,26.35
2018-08-30T05:36:51.767Z,30.45
2018-08-30T05:39:19.721Z,28.62
2018-08-30T05:41:47.389Z,26.00
2018-08-30T05:44:15.047Z,25.05
2018-08-30T05:46:42.445Z,24.50
2018-08-30T05:49:10.075Z,27.22
2018-08-30T05:51:37.924Z,26.90
2018-08-30T05:54:05.720Z,25.15
2018-08-30T05:56:33.041Z,27.52
2018-08-30T05:59:01.084Z,27.25
2018-08-30T06:01:28.526Z,26.50
2018-08-30T06:03:56.457Z,28.47
2018-08-30T06:06:24.724Z,24.32
2018-08-30T06:08:52.564Z,27.25
2018-08-30T06:11:20.220Z,27.50
2018-08-30T06:13:47.812Z,27.07
2018-08-30T06:16:15.154Z,26.57
2018-08-30T06:18:42.577Z,23.95
2018-08-30T06:21:09.930Z,25.27
2018-08-30T06:23:37.364Z,26.80
2018-08-30T06:26:04.736Z,30.50
2018-08-30T06:28:32.104Z,26.13
2018-08-30T06:30:59.510Z,26.30
2018-08-30T06:33:27.258Z,24.50
2018-08-30T06:35:55.537Z,25.00
2018-08-30T06:38:24.128Z,26.48
2018-08-30T06:40:51.995Z,26.95
2018-08-30T06:43:19.965Z,25.68
2018-08-30T06:45:47.362Z,26.97
2018-08-30T06:48:15.293Z,27.40
2018-08-30T06:50:43.215Z,25.35
2018-08-30T06:53:10.523Z,23.90
2018-08-30T06:55:38.182Z,26.87
2018-08-30T06:58:05.562Z,23.45
2018-08-30T07:00:33.181Z,24.35
2018-08-30T07:03:00.823Z,23.90
2018-08-30T07:05:28.181Z,23.47
2018-08-30T07:07:55.778Z,26.30
2018-08-30T07:13:07.919Z,23.85
2018-08-30T07:15:36.093Z,24.00
2018-08-30T07:18:03.967Z,24.98
2018-08-30T07:20:31.785Z,24.92
2018-08-30T07:22:59.309Z,23.77
2018-08-30T07:25:26.837Z,24.90
2018-08-30T07:27:54.942Z,24.40
2018-08-30T07:30:22.452Z,20.95
2018-08-30T07:32:50.231Z,22.35
2018-08-30T07:35:17.779Z,20.60
2018-08-30T07:37:45.247Z,25.02
2018-08-30T07:40:12.988Z,24.52
2018-08-30T07:42:40.468Z,25.82
2018-08-30T07:45:07.997Z,24.85
2018-08-30T07:47:35.542Z,23.02
2018-08-30T07:50:03.360Z,25.65
2018-08-30T07:52:30.840Z,26.30
2018-08-30T07:54:58.687Z,25.60
2018-08-30T07:57:26.850Z,23.70
2018-08-30T07:59:54.579Z,24.47
2018-08-30T08:02:22.499Z,23.60
2018-08-30T08:04:50.321Z,22.17
2018-08-30T08:07:17.926Z,25.43
2018-08-30T08:09:45.717Z,27.10
2018-08-30T08:12:13.289Z,24.07
2018-08-30T08:14:40.803Z,27.90
2018-08-30T08:17:08.625Z,22.95
2018-08-30T08:19:36.100Z,29.72
2018-08-30T08:22:04.257Z,29.80
2018-08-30T08:24:31.879Z,25.35
2018-08-30T08:26:59.723Z,22.95
2018-08-30T08:29:27.800Z,23.92
2018-08-30T08:31:55.875Z,29.35
2018-08-30T08:34:23.817Z,23.20
2018-08-30T08:36:51.287Z,32.17
2018-08-30T08:39:19.067Z,27.87
2018-08-30T08:41:47.253Z,28.87
2018-08-30T08:44:15.512Z,26.65
2018-08-30T08:46:43.373Z,24.00
2018-08-30T08:49:11.356Z,24.85
2018-08-30T08:51:38.943Z,28.67
2018-08-30T08:54:07.084Z,25.65
2018-08-30T08:56:34.766Z,26.27
2018-08-30T08:59:02.380Z,24.57
2018-08-30T09:01:30.616Z,22.77
2018-08-30T09:03:58.535Z,23.20
2018-08-30T09:06:26.267Z,26.70
2018-08-30T09:08:54.604Z,26.13
2018-08-30T09:11:22.168Z,26.90
2018-08-30T09:13:50.020Z,25.45
2018-08-30T09:16:17.708Z,26.57
2018-08-30T09:18:46.174Z,24.20
2018-08-30T09:21:14.808Z,25.70
2018-08-30T09:23:42.653Z,23.87
2018-08-30T09:26:11.465Z,24.00
2018-08-30T09:28:39.876Z,25.70
2018-08-30T09:31:08.465Z,27.10
2018-08-30T09:33:36.798Z,22.30
2018-08-30T09:36:05.134Z,25.35
2018-08-30T09:38:32.892Z,26.02
2018-08-30T09:41:00.360Z,25.95
2018-08-30T09:43:28.529Z,26.50
2018-08-30T09:45:56.649Z,23.22
2018-08-30T09:48:24.375Z,26.45
2018-08-30T09:50:52.195Z,24.17
2018-08-30T09:53:19.741Z,24.35
2018-08-30T09:55:47.265Z,23.55
2018-08-30T09:58:14.702Z,25.45
2018-08-30T10:00:47.612Z,25.40
2018-08-30T10:03:15.140Z,23.70
2018-08-30T10:05:42.641Z,27.45
2018-08-30T10:08:10.131Z,23.47
2018-08-30T10:10:37.694Z,23.70
2018-08-30T10:13:05.190Z,25.02
2018-08-30T10:15:32.735Z,20.77
2018-08-30T10:18:00.276Z,25.95
2018-08-30T10:20:27.913Z,24.70
2018-08-30T10:22:55.385Z,25.00
2018-08-30T10:25:23.044Z,26.87
2018-08-30T10:27:50.873Z,32.05
2018-08-30T10:30:18.696Z,33.05
2018-08-30T10:32:46.166Z,29.85
2018-08-30T10:35:13.970Z,27.30
2018-08-30T10:37:41.459Z,31.07
2018-08-30T10:40:09.380Z,29.18
2018-08-30T10:42:36.827Z,25.92
2018-08-30T10:45:04.587Z,23.18
2018-08-30T10:47:32.120Z,27.58
2018-08-30T10:49:59.945Z,29.40
2018-08-30T10:52:27.745Z,23.92
2018-08-30T10:54:55.593Z,26.55
2018-08-30T10:57:23.076Z,23.80
2018-08-30T10:59:50.587Z,18.80
2018-08-30T11:02:18.656Z,17.40
2018-08-30T11:04:46.507Z,18.07
2018-08-30T11:07:14.219Z,17.25
2018-08-30T11:09:41.740Z,20.90
2018-08-30T11:12:10.156Z,18.48
2018-08-30T11:14:37.916Z,13.27
2018-08-30T11:17:05.457Z,17.32
2018-08-30T11:19:33.284Z,11.80
2018-08-30T11:22:00.723Z,11.75
2018-08-30T11:24:28.519Z,12.88
2018-08-30T11:26:56.040Z,13.18
2018-08-30T11:29:23.553Z,15.98
2018-08-30T11:31:51.617Z,16.23
2018-08-30T11:34:19.122Z,11.73
2018-08-30T11:36:47.255Z,12.23
2018-08-30T11:39:15.317Z,13.60
2018-08-30T11:41:43.280Z,13.53
2018-08-30T11:44:10.771Z,11.83
2018-08-30T11:46:38.628Z,12.78
2018-08-30T11:49:06.650Z,14.60
2018-08-30T11:51:34.169Z,14.35
2018-08-30T11:54:01.723Z,13.60
2018-08-30T11:56:29.673Z,10.85
2018-08-30T11:58:57.435Z,12.43
2018-08-30T12:01:24.921Z,10.60
2018-08-30T12:03:52.559Z,9.50
2018-08-30T12:06:20.097Z,9.48
2018-08-30T12:08:47.892Z,11.05
2018-08-30T12:11:15.815Z,12.40
2018-08-30T12:13:43.621Z,11.75
2018-08-30T12:16:11.058Z,13.50
2018-08-30T12:18:38.551Z,14.13
2018-08-30T12:21:06.100Z,14.87
2018-08-30T12:23:33.897Z,15.50
2018-08-30T12:26:01.452Z,13.95
2018-08-30T12:28:29.461Z,15.75
2018-08-30T12:30:57.511Z,13.60
2018-08-30T12:33:25.317Z,15.98
2018-08-30T12:35:53.591Z,17.55
2018-08-30T12:38:21.507Z,17.73
2018-08-30T12:40:49.643Z,17.98
2018-08-30T12:43:17.417Z,14.47
2018-08-30T12:45:46.036Z,17.23
2018-08-30T12:48:13.510Z,14.50
2018-08-30T12:50:41.358Z,15.65
2018-08-30T12:53:09.387Z,19.50
2018-08-30T12:55:37.104Z,19.95
2018-08-30T12:58:04.740Z,15.38
2018-08-30T13:00:33.304Z,15.20
2018-08-30T13:03:00.966Z,15.78
2018-08-30T13:05:29.100Z,13.03
2018-08-30T13:07:57.163Z,13.45
2018-08-30T13:10:24.920Z,14.30
2018-08-30T13:12:52.479Z,12.03
2018-08-30T13:15:20.437Z,14.00
2018-08-30T13:17:48.002Z,15.60
2018-08-30T13:20:15.643Z,18.13
2018-08-30T13:22:43.482Z,11.43
2018-08-30T13:25:10.955Z,11.63
2018-08-30T13:27:38.645Z,14.75
2018-08-30T13:30:06.911Z,10.83
2018-08-30T13:32:34.502Z,10.43
2018-08-30T13:35:02.192Z,11.30
2018-08-30T13:37:30.603Z,10.35
2018-08-30T13:39:58.227Z,8.57
2018-08-30T13:42:26.152Z,10.45
2018-08-30T13:44:54.554Z,9.35
2018-08-30T13:47:22.140Z,8.58
2018-08-30T13:49:50.189Z,33.58
2018-08-30T13:52:18.677Z,11.77
2018-08-30T13:54:46.545Z,5.40
2018-08-30T13:57:14.354Z,5.80
2018-08-30T13:59:42.238Z,4.37
2018-08-30T14:02:09.531Z,5.65
2018-08-30T14:04:36.973Z,4.65
2018-08-30T14:07:04.660Z,7.17
2018-08-30T14:09:32.684Z,3.50
2018-08-30T14:12:00.480Z,6.83
2018-08-30T14:14:28.532Z,28.45
2018-08-30T14:16:55.932Z,10.55
2018-08-30T14:19:23.455Z,4.20
2018-08-30T14:21:51.292Z,4.05
2018-08-30T14:24:18.772Z,3.75
2018-08-30T14:26:46.333Z,4.22
2018-08-30T14:29:13.852Z,2.40
2018-08-30T14:31:41.600Z,2.42
2018-08-30T14:34:09.076Z,2.83
2018-08-30T14:36:36.913Z,2.80
2018-08-30T14:39:04.891Z,3.90
2018-08-30T14:41:32.395Z,3.00
2018-08-30T14:43:59.887Z,5.35
2018-08-30T14:46:27.337Z,5.60
2018-08-30T14:48:55.111Z,7.20
2018-08-30T14:51:22.601Z,3.02
2018-08-30T14:53:52.181Z,2.27
2018-08-30T14:56:17.953Z,3.33
2018-08-30T14:58:45.456Z,3.80
2018-08-30T15:01:13.380Z,5.53
2018-08-30T15:03:41.446Z,4.40
2018-08-30T15:06:09.439Z,6.60
2018-08-30T15:08:36.957Z,4.70
2018-08-30T15:11:04.988Z,3.55
2018-08-30T15:13:32.709Z,4.20
2018-08-30T15:16:00.310Z,3.22
2018-08-30T15:18:27.712Z,4.22
2018-08-30T15:20:55.132Z,2.65
2018-08-30T15:23:22.696Z,4.97
2018-08-30T15:25:50.185Z,2.77
2018-08-30T15:28:17.750Z,3.80
2018-08-30T15:30:45.308Z,3.10
2018-08-30T15:33:13.035Z,2.50
2018-08-30T15:35:40.761Z,2.70
2018-08-30T15:38:08.309Z,2.35
2018-08-30T15:40:35.792Z,2.70
2018-08-30T15:43:03.555Z,2.30
2018-08-30T15:45:31.072Z,2.40
2018-08-30T15:47:59.172Z,4.00
2018-08-30T15:50:27.289Z,3.98
2018-08-30T15:52:54.797Z,2.85
2018-08-30T15:55:22.623Z,3.10
2018-08-30T15:57:50.126Z,4.42
2018-08-30T16:00:17.837Z,4.30
2018-08-30T16:02:46.315Z,3.85
2018-08-30T16:05:14.148Z,4.23
2018-08-30T16:07:42.058Z,5.42
2018-08-30T16:10:09.602Z,5.58
2018-08-30T16:12:37.084Z,5.67
2018-08-30T16:15:04.600Z,6.00
2018-08-30T16:17:32.119Z,4.55
2018-08-30T16:19:59.648Z,5.40
2018-08-30T16:22:32.681Z,5.67
2018-08-30T16:25:00.229Z,5.80
2018-08-30T16:27:27.722Z,6.90
2018-08-30T16:29:55.535Z,6.50
2018-08-30T16:32:23.669Z,8.68
2018-08-30T16:34:51.926Z,6.10
2018-08-30T16:37:19.648Z,5.55
2018-08-30T16:39:48.079Z,6.15
2018-08-30T16:42:15.864Z,8.38
2018-08-30T16:44:43.656Z,7.62
2018-08-30T16:47:11.460Z,6.62
2018-08-30T16:49:39.726Z,7.58
2018-08-30T16:52:07.148Z,8.20
2018-08-30T16:54:34.916Z,6.95
2018-08-30T16:57:02.422Z,7.03
2018-08-30T16:59:30.004Z,6.87
2018-08-30T17:02:03.022Z,7.55
2018-08-30T17:04:30.927Z,8.50
2018-08-30T17:06:58.492Z,7.90
2018-08-30T17:09:26.559Z,8.95
2018-08-30T17:11:54.327Z,8.50
2018-08-30T17:14:22.064Z,8.98
2018-08-30T17:16:49.549Z,11.18
2018-08-30T17:19:20.753Z,11.30
2018-08-30T17:21:48.872Z,14.50
2018-08-30T17:24:16.366Z,11.93
2018-08-30T17:26:43.893Z,13.23
2018-08-30T17:29:11.392Z,13.48
2018-08-30T17:31:38.913Z,14.50
2018-08-30T17:34:07.087Z,13.38
2018-08-30T17:36:34.575Z,17.35
2018-08-30T17:39:02.707Z,14.43
2018-08-30T17:41:30.204Z,17.37
2018-08-30T17:43:57.927Z,15.03
2018-08-30T17:46:25.605Z,19.92
2018-08-30T17:48:53.132Z,14.70
2018-08-30T17:51:20.907Z,17.75
2018-08-30T17:53:48.867Z,17.87
2018-08-30T17:56:16.433Z,14.40
2018-08-30T17:58:44.026Z,14.58
2018-08-30T18:01:11.855Z,14.33
2018-08-30T18:03:39.666Z,13.45
2018-08-30T18:06:07.623Z,14.35
2018-08-30T18:08:35.117Z,15.45
2018-08-30T18:11:02.537Z,9.60
2018-08-30T18:13:30.116Z,11.22
2018-08-30T18:15:57.798Z,12.43
2018-08-30T18:18:25.406Z,12.68
2018-08-30T18:20:52.885Z,34.40
2018-08-30T18:23:20.377Z,10.90
2018-08-30T18:25:47.894Z,13.60
2018-08-30T18:28:15.412Z,12.55
2018-08-30T18:30:43.207Z,11.43
2018-08-30T18:33:10.661Z,10.68
2018-08-30T18:35:38.134Z,12.13
2018-08-30T18:38:05.642Z,14.93
2018-08-30T18:40:33.528Z,8.50
2018-08-30T18:43:01.827Z,11.90
2018-08-30T18:45:29.551Z,12.18
2018-08-30T18:47:57.095Z,14.68
2018-08-30T18:50:24.816Z,15.50
2018-08-30T18:52:52.344Z,11.50
2018-08-30T18:55:19.768Z,17.42
2018-08-30T18:57:47.287Z,12.63
2018-08-30T19:00:14.843Z,11.73
2018-08-30T19:02:42.648Z,13.88
2018-08-30T19:05:10.148Z,10.82
2018-08-30T19:07:38.001Z,16.30
2018-08-30T19:10:05.815Z,10.93
2018-08-30T19:12:33.316Z,11.80
2018-08-30T19:15:04.841Z,13.58
2018-08-30T19:17:37.683Z,9.60
2018-08-30T19:20:05.173Z,15.35
2018-08-30T19:22:32.671Z,11.97
2018-08-30T19:25:05.745Z,14.47
2018-08-30T19:27:33.242Z,11.25
2018-08-30T19:30:06.412Z,15.28
2018-08-30T19:32:33.981Z,15.28
2018-08-30T19:35:06.803Z,14.58
2018-08-30T19:37:34.895Z,16.00
2018-08-30T19:40:02.457Z,13.83
2018-08-30T19:42:30.235Z,12.37
2018-08-30T19:44:57.737Z,14.87
2018-08-30T19:47:25.156Z,13.48
2018-08-30T19:49:53.295Z,19.10
2018-08-30T19:52:20.790Z,14.10
2018-08-30T19:54:48.297Z,17.75
2018-08-30T19:57:16.365Z,12.43
2018-08-30T19:59:43.882Z,14.95
2018-08-30T20:02:11.717Z,16.02
2018-08-30T20:04:39.533Z,17.80
2018-08-30T20:07:06.971Z,17.62
2018-08-30T20:09:34.693Z,22.10
2018-08-30T20:12:02.200Z,22.98
2018-08-30T20:14:29.871Z,22.17
2018-08-30T20:16:57.436Z,13.18
2018-08-30T20:19:24.957Z,13.75
2018-08-30T20:21:52.739Z,14.23
2018-08-30T20:24:20.181Z,14.00
2018-08-30T20:26:47.706Z,14.70
2018-08-30T20:29:15.453Z,12.68
2018-08-30T20:31:43.017Z,15.70
2018-08-30T20:34:10.524Z,15.15
2018-08-30T20:36:37.968Z,12.23
2018-08-30T20:39:06.299Z,14.93
2018-08-30T20:41:34.007Z,15.05
2018-08-30T20:44:01.548Z,17.77
2018-08-30T20:46:29.351Z,17.92
2018-08-30T20:48:56.848Z,16.42
2018-08-30T20:51:24.568Z,17.05
2018-08-30T20:53:52.420Z,18.32
2018-08-30T20:56:20.495Z,17.90
2018-08-30T20:58:48.298Z,14.63
2018-08-30T21:01:15.785Z,13.60
2018-08-30T21:03:43.303Z,16.33
2018-08-30T21:06:10.816Z,13.62
2018-08-30T21:08:38.525Z,12.73
2018-08-30T21:11:05.976Z,16.00
2018-08-30T21:15:20.117Z,14.60
2018-08-30T21:17:47.881Z,12.05
2018-08-30T21:20:15.623Z,9.80
2018-08-30T21:22:43.614Z,16.90
2018-08-30T21:25:11.170Z,12.00
2018-08-30T21:27:39.015Z,16.70
2018-08-30T21:30:06.540Z,11.70
2018-08-30T21:32:34.388Z,12.37
2018-08-30T21:35:01.853Z,15.23
2018-08-30T21:37:29.576Z,17.75
2018-08-30T21:39:57.663Z,11.78
2018-08-30T21:42:25.847Z,12.20
2018-08-30T21:44:53.341Z,12.00
2018-08-30T21:47:21.068Z,13.85
2018-08-30T21:49:48.562Z,11.73
2018-08-30T21:52:16.024Z,13.53
2018-08-30T21:54:43.772Z,12.78
2018-08-30T21:57:11.548Z,15.78
2018-08-30T21:59:39.035Z,13.13
2018-08-30T22:02:06.907Z,11.50
2018-08-30T22:04:34.496Z,14.60
2018-08-30T22:07:02.266Z,9.08
2018-08-30T22:09:29.824Z,15.43
2018-08-30T22:11:57.338Z,9.55
2018-08-30T22:14:24.876Z,13.38
2018-08-30T22:16:52.680Z,13.62
2018-08-30T22:19:20.209Z,7.97
2018-08-30T22:21:47.793Z,15.30
2018-08-30T22:24:15.705Z,8.68
2018-08-30T22:26:43.401Z,12.68
2018-08-30T22:29:11.325Z,11.18
2018-08-30T22:31:39.128Z,11.38
2018-08-30T22:34:06.729Z,11.50
2018-08-30T22:36:34.261Z,13.08
2018-08-30T22:39:01.812Z,9.40
2018-08-30T22:41:29.785Z,15.43
2018-08-30T22:43:57.853Z,14.73
2018-08-30T22:46:25.783Z,9.43
2018-08-30T22:48:53.983Z,12.60
2018-08-30T22:51:22.629Z,14.45
2018-08-30T22:53:50.857Z,10.98
2018-08-30T22:56:20.059Z,10.18
2018-08-30T22:58:48.516Z,15.40
2018-08-30T23:01:17.739Z,11.97
2018-08-30T23:03:49.812Z,12.70
2018-08-30T23:06:20.650Z,10.63
2018-08-30T23:08:50.958Z,16.63
2018-08-30T23:11:21.549Z,11.70
2018-08-30T23:13:50.455Z,14.18
2018-08-30T23:16:19.171Z,12.37
2018-08-30T23:18:49.473Z,10.40
2018-08-30T23:21:18.481Z,13.20
2018-08-30T23:23:47.632Z,12.95
2018-08-30T23:26:16.728Z,10.08
2018-08-30T23:28:58.945Z,12.88
2018-08-30T23:31:33.934Z,16.60
2018-08-30T23:34:09.227Z,10.95
2018-08-30T23:36:41.352Z,10.50
2018-08-30T23:39:10.402Z,11.38
2018-08-30T23:41:38.119Z,12.93
2018-08-30T23:44:06.859Z,11.88
2018-08-30T23:46:35.600Z,10.05
2018-08-30T23:49:05.189Z,17.55
2018-08-30T23:51:33.881Z,9.73
2018-08-30T23:54:03.463Z,25.15
2018-08-30T23:56:33.868Z,12.78
2018-08-30T23:59:07.747Z,12.98
